x

San Clemente Basin - 27nm Se Of San Clemente Is, Ca (46086) Wave Buoy

1:50pm - Fri 12th Feb 2016 All times are PST. -8 hours from GMT.

  • Sig Wave height 6.9ft
  • Swell Direction
  • Peak Period 19s
  • Average Period 12s
  • Wind
    11mph, 13mph gusts
  • Sea Temp 62°f
  • Air Temp 58°f
  • Sea Pressure 1017.5mb
  • San Clemente Basin - 27nm Se Of San Clemente Is, Ca
  • San Clemente Basin - 27nm Se Of San Clemente Is, Ca

More Historic Weather Station data

Upgrade to MSW Pro to gain access to the past 30 days of data for over 8000 Wavebouys and Weather Stations around the globe.

Join Pro

Comparision Forecast

View Surf forecast
   
Fri 02/12 1:50pm 7ft 19s 12s 11 13 mph 1017.5mb 62f 58f
12:50pm 7ft 19s 12s 9 11 mph 1018.2mb 62f 58f
11:50am 7ft 19s 13s 9 13 mph 1019.1mb 62f 58f
10:50am 6.5ft 19s 12s 7 11 mph 1019.7mb 62f 60f
9:50am 6ft 19s 13s 9 11 mph 1019.8mb 62f 60f
8:50am 7.5ft 19s 14s 7 9 mph 1019.6mb 61f 60f
7:50am 6.5ft 21s 13s 7 11 mph 1019.3mb 61f 60f
6:50am 7.5ft 21s 14s 7 9 mph 1018.7mb 61f 57f
5:50am 7ft 21s 13s 9
mph
1018.4mb 61f 61f
4:50am 6.5ft 21s 12s 7
mph
1018.2mb 61f 60f
3:50am 6ft 21s 13s 7 9 mph 1018.3mb 61f 61f
2:50am 6ft 21s 13s 9
mph
1018.5mb 61f 61f
1:50am 6ft 21s 12s 7 9 mph 1018.9mb 61f 61f
12:50am 5ft 21s 12s 4 7 mph 1019mb 62f 61f
Thu 02/11 11:50pm 5ft 21s 12s 7
mph
1019.4mb 62f 61f
10:50pm 5ft 21s 12s 7 9 mph 1019.4mb 62f 61f
9:50pm 5ft 12s 11s 2 4 mph 1019.4mb 62f 62f
8:50pm 5ft 11s 11s 4 7 mph 1019.3mb 62f 62f
7:50pm 5ft 13s 11s  -  2 mph 1019.1mb 63f 62f
6:50pm 5ft 12s 11s 4
mph
1019.1mb 63f 62f
5:50pm 5ft 13s 11s 4 7 mph 1018.5mb 63f 63f
4:50pm 5ft 13s 10s 2 4 mph 1018mb 64f 65f
3:50pm 5ft 13s 10s  -  2 mph 1017.8mb 64f 64f
2:50pm 4.5ft 14s 10s 2 4 mph 1017.8mb 64f 64f
1:50pm 4.5ft 12s 10s 2 4 mph 1017.8mb 63f 63f
12:50pm 4ft 13s 10s 4 7 mph 1018.3mb 63f 62f
11:50am 4ft 13s 10s 7
mph
1019.4mb 62f 62f
10:50am 3.5ft 13s 10s 7
mph
1019.8mb 62f 62f
9:50am 4.5ft 12s 10s 4 7 mph 1019.4mb 62f 62f
8:50am 3.5ft 12s 10s 4 7 mph 1019.1mb 61f 61f
7:50am 3ft 14s 9s 4 7 mph 1018.7mb 61f 61f
6:50am 3.5ft 13s 9s 4 7 mph 1018.1mb 61f 61f
5:50am 3.5ft 13s 8s 7 9 mph 1018mb 61f 61f
4:50am 4ft 13s 9s 4 7 mph 1017.7mb 61f 61f
3:50am 3.5ft 13s 9s 4 7 mph 1017.6mb 61f 61f
2:50am 3.5ft 14s 9s 4
mph
1017.9mb 62f 61f
1:50am 3.5ft 12s 9s 2 4 mph 1018.3mb 62f 61f
12:50am 3.5ft 12s 10s 2 4 mph 1018.6mb 62f 61f
Wed 02/10 11:50pm 3.5ft 14s 9s 4
mph
1018.7mb 62f 61f
10:50pm 3.5ft 12s 10s 2
mph
1018.9mb 62f 62f
9:50pm 3.5ft 13s 10s  -  2 mph 1018.9mb 62f 62f
8:50pm 3ft 14s 10s 4
mph
1018.7mb 62f 62f
7:50pm 3ft 13s 9s 7
mph
1018.6mb 62f 63f
6:50pm 3.5ft 13s 9s 9
mph
1018.3mb 62f 63f
5:50pm 3.5ft 13s 9s 4 7 mph 1018.3mb 63f 63f
4:50pm 3.5ft 13s 9s 7
mph
1018.2mb 63f 64f
3:50pm 3.5ft 13s 9s 4 7 mph 1018mb 62f 64f
2:50pm 3.5ft 14s 10s 4 7 mph 1018.1mb 63f 64f
1:50pm 3.5ft 13s 10s 7 9 mph 1018.6mb 63f 64f
12:50pm 3.5ft 13s 10s 7 9 mph 1019.4mb 63f 64f
11:50am 4ft 14s 11s 2 4 mph 1020.2mb 63f 64f
10:50am 3.5ft 14s 10s 2
mph
1020.7mb 62f 63f
9:50am 3.5ft 13s 9s 7
mph
1020.6mb 61f 62f
8:50am 3.5ft 14s 10s 4 7 mph 1020.4mb 61f 62f
7:50am 4ft 14s 9s 4 7 mph 1020mb 61f 62f
6:50am 4ft 14s 9s 4
mph
1019.9mb 61f 62f
5:50am 4.5ft 14s 9s 7
mph
1019.3mb 61f 62f
4:50am 3.5ft 13s 8s 11 13 mph 1019.1mb 61f 62f
3:50am 4ft 15s 8s 7 9 mph 1018.9mb 61f 62f
2:50am 3.5ft 14s 8s 4 7 mph 1019.2mb 61f 62f
1:50am 4.5ft 15s 9s 4
mph
1019.3mb 61f 63f
12:50am 4.5ft 13s 10s  -  2 mph 1019.5mb 61f 62f
Tue 02/09 11:50pm 4.5ft 14s 10s 4 7 mph 1019.4mb 61f 62f
10:50pm 4.5ft 14s 11s 9
mph
1019.3mb 61f 64f
9:50pm 4.5ft 15s 11s 11
mph
1019.3mb 61f 64f
8:50pm 5ft 15s 13s 11 13 mph 1018.6mb 61f 65f
7:50pm 4.5ft 15s 12s 4 7 mph 1017.9mb 62f 64f
6:50pm 5ft 15s 13s 7 9 mph 1018mb 62f 64f
5:50pm 4.5ft 15s 13s 9 11 mph 1018.1mb 62f 64f
4:50pm 4.5ft 14s 12s 7 9 mph 1018mb 62f 65f
3:50pm 4ft 15s 12s 7 9 mph 1017.7mb 62f 65f
2:50pm 5ft 15s 13s 7
mph
1017.8mb 63f 65f
1:50pm 4.5ft 15s 12s 4 7 mph 1018.2mb 62f 64f
12:50pm 4ft 16s 12s 9
mph
1018.6mb 62f 64f
11:50am 4.5ft 15s 12s 7 9 mph 1019.7mb 62f 64f
10:50am 4.5ft 16s 13s 9 11 mph 1020.3mb 61f 64f
9:50am 4ft 16s 12s 7 9 mph 1020.6mb 61f 63f
8:50am 4ft 16s 12s 7
mph
1020.5mb 61f 63f
7:50am 3.5ft 16s 12s 9
mph
1019.9mb 61f 63f
6:50am 3.5ft 16s 12s 9
mph
1019.5mb 61f 62f
5:50am 3.5ft 16s 12s 7 9 mph 1019.1mb 61f 62f
4:50am 4ft 17s 12s 4 7 mph 1018.7mb 61f 62f
3:50am 4ft 17s 12s 4 7 mph 1018.7mb 61f 62f
2:50am 3.5ft 17s 11s 4
mph
1019mb 61f 62f
1:50am 4ft 17s 12s 2 4 mph 1019.3mb 61f 62f
12:50am 3.5ft 17s 11s 7
mph
1019.6mb 61f 62f
Mon 02/08 11:50pm 4ft 17s 11s 2 4 mph 1019.6mb 61f 63f